createdAt,value
2023-04-17T00:02:13.458Z,2.40
2023-04-17T00:07:16.347Z,2.33
2023-04-17T00:12:20.588Z,2.22
2023-04-17T00:17:23.448Z,2.30
2023-04-17T00:22:26.594Z,2.17
2023-04-17T00:27:30.898Z,2.20
2023-04-17T00:32:33.786Z,1.95
2023-04-17T00:37:36.770Z,1.80
2023-04-17T00:42:41.237Z,2.40
2023-04-17T00:47:44.248Z,1.80
2023-04-17T00:52:48.490Z,2.00
2023-04-17T00:57:52.837Z,1.80
2023-04-17T01:02:58.169Z,1.83
2023-04-17T01:08:01.249Z,1.83
2023-04-17T01:13:06.600Z,1.60
2023-04-17T01:18:09.518Z,1.80
2023-04-17T01:23:12.658Z,1.67
2023-04-17T01:28:17.141Z,1.40
2023-04-17T01:33:20.041Z,1.50
2023-04-17T01:38:22.942Z,1.38
2023-04-17T01:43:27.276Z,1.20
2023-04-17T01:48:30.169Z,1.42
2023-04-17T01:53:34.095Z,1.20
2023-04-17T01:58:38.378Z,1.05
2023-04-17T02:03:42.036Z,1.23
2023-04-17T02:08:45.068Z,0.95
2023-04-17T02:13:49.315Z,1.10
2023-04-17T02:18:52.743Z,1.20
2023-04-17T02:23:55.641Z,1.00
2023-04-17T02:28:59.999Z,1.20
2023-04-17T02:34:02.939Z,1.00
2023-04-17T02:39:05.928Z,0.75
2023-04-17T02:44:10.359Z,1.10
2023-04-17T02:49:13.501Z,0.75
2023-04-17T02:54:16.562Z,0.98
2023-04-17T02:59:20.826Z,1.00
2023-04-17T03:04:23.764Z,0.80
2023-04-17T03:09:26.672Z,0.88
2023-04-17T03:14:30.899Z,0.80
2023-04-17T03:19:33.992Z,1.05
2023-04-17T03:24:37.052Z,1.00
2023-04-17T03:29:41.296Z,0.80
2023-04-17T03:34:44.228Z,0.70
2023-04-17T03:39:47.142Z,0.70
2023-04-17T03:44:52.055Z,0.70
2023-04-17T03:49:54.984Z,0.70
2023-04-17T03:54:58.145Z,0.80
2023-04-17T04:00:02.410Z,0.60
2023-04-17T04:05:05.951Z,0.63
2023-04-17T04:10:09.685Z,0.70
2023-04-17T04:15:14.037Z,0.70
2023-04-17T04:20:17.017Z,0.70
2023-04-17T04:25:20.363Z,0.60
2023-04-17T04:30:25.425Z,0.63
2023-04-17T04:35:30.140Z,0.73
2023-04-17T04:40:36.409Z,0.70
2023-04-17T04:45:40.703Z,1.20
2023-04-17T04:50:43.706Z,1.13
2023-04-17T04:55:46.624Z,0.90
2023-04-17T05:00:51.097Z,2.03
2023-04-17T05:05:54.050Z,1.00
2023-04-17T05:10:56.974Z,1.15
2023-04-17T05:16:01.981Z,0.98
2023-04-17T05:21:05.610Z,3.25
2023-04-17T05:26:08.634Z,1.65
2023-04-17T05:31:12.929Z,2.90
2023-04-17T05:36:15.801Z,2.38
2023-04-17T05:41:18.678Z,2.30
2023-04-17T05:46:23.087Z,2.67
2023-04-17T05:51:26.468Z,1.67
2023-04-17T05:56:29.401Z,2.25
2023-04-17T06:01:33.665Z,2.30
2023-04-17T06:06:36.542Z,1.95
2023-04-17T06:11:39.679Z,2.00
2023-04-17T06:16:43.998Z,2.05
2023-04-17T06:21:46.925Z,1.75
2023-04-17T06:26:49.788Z,1.67
2023-04-17T06:31:54.055Z,1.70
2023-04-17T06:36:57.520Z,1.55
2023-04-17T06:42:00.467Z,1.20
2023-04-17T06:47:05.533Z,1.50
2023-04-17T06:52:08.440Z,1.83
2023-04-17T06:57:12.128Z,1.35
2023-04-17T07:02:16.615Z,1.60
2023-04-17T07:07:19.584Z,1.50
2023-04-17T07:12:22.849Z,1.40
2023-04-17T07:17:28.090Z,1.40
2023-04-17T07:22:30.997Z,1.60
2023-04-17T07:27:33.883Z,1.30
2023-04-17T07:32:38.474Z,1.40
2023-04-17T07:37:41.404Z,1.35
2023-04-17T07:42:44.414Z,1.10
2023-04-17T07:47:48.958Z,1.42
2023-04-17T07:52:52.012Z,1.40
2023-04-17T07:57:54.965Z,1.25
2023-04-17T08:02:59.493Z,1.40
2023-04-17T08:08:02.449Z,1.23
2023-04-17T08:13:05.354Z,1.50
2023-04-17T08:18:11.134Z,1.17
2023-04-17T08:23:14.028Z,0.90
2023-04-17T08:28:16.953Z,1.05
2023-04-17T08:33:21.516Z,1.23
2023-04-17T08:38:24.607Z,1.20
2023-04-17T08:43:30.557Z,1.50
2023-04-17T08:48:34.927Z,1.10
2023-04-17T08:53:37.920Z,1.20
2023-04-17T08:58:40.854Z,1.10
2023-04-17T09:03:46.939Z,1.15
2023-04-17T09:08:58.143Z,1.05
2023-04-17T09:14:01.262Z,1.10
2023-04-17T09:19:08.662Z,1.42
2023-04-17T09:24:11.549Z,1.02
2023-04-17T09:29:14.815Z,1.00
2023-04-17T09:34:20.666Z,1.15
2023-04-17T09:39:24.658Z,1.02
2023-04-17T09:44:29.990Z,0.95
2023-04-17T09:49:40.527Z,0.70
2023-04-17T09:54:44.228Z,0.90
2023-04-17T09:59:49.317Z,1.00
2023-04-17T10:04:55.140Z,0.90
2023-04-17T10:09:58.074Z,0.90
2023-04-17T10:15:01.129Z,0.90
2023-04-17T10:20:39.622Z,0.90
2023-04-17T10:25:42.775Z,0.90
2023-04-17T10:30:54.632Z,0.90
2023-04-17T10:35:59.656Z,0.80
2023-04-17T10:41:04.924Z,0.75
2023-04-17T10:46:10.724Z,0.95
2023-04-17T10:51:43.337Z,0.68
2023-04-17T10:56:48.340Z,0.85
2023-04-17T11:02:00.960Z,0.80
2023-04-17T11:07:06.049Z,0.65
2023-04-17T11:12:09.111Z,0.60
2023-04-17T11:17:12.039Z,0.80
2023-04-17T11:22:19.337Z,0.80
2023-04-17T11:27:23.738Z,0.70
2023-04-17T11:32:26.740Z,0.70
2023-04-17T11:37:31.175Z,0.70
2023-04-17T11:42:34.300Z,0.60
2023-04-17T11:47:37.272Z,0.63
2023-04-17T11:52:41.670Z,0.70
2023-04-17T11:57:44.667Z,0.90
2023-04-17T12:02:47.797Z,0.50
2023-04-17T12:08:04.560Z,0.68
2023-04-17T12:13:07.870Z,0.80
2023-04-17T12:18:10.847Z,0.77
2023-04-17T12:23:15.125Z,0.85
2023-04-17T12:28:18.004Z,0.68
2023-04-17T12:33:20.881Z,0.80
2023-04-17T12:38:25.121Z,0.63
2023-04-17T12:43:28.023Z,0.77
2023-04-17T12:48:33.054Z,0.80
2023-04-17T12:53:37.533Z,0.68
2023-04-17T12:58:40.449Z,0.60
2023-04-17T13:03:43.688Z,0.68
2023-04-17T13:08:48.270Z,0.73
2023-04-17T13:13:51.203Z,0.70
2023-04-17T13:18:54.095Z,0.75
2023-04-17T13:23:58.319Z,0.75
2023-04-17T13:29:01.224Z,0.70
2023-04-17T13:34:04.316Z,0.60
2023-04-17T13:39:09.509Z,0.82
2023-04-17T13:44:12.557Z,0.90
2023-04-17T13:49:15.885Z,0.80
2023-04-17T13:54:20.143Z,0.90
2023-04-17T13:59:23.062Z,0.75
2023-04-17T14:04:26.091Z,0.90
2023-04-17T14:09:30.507Z,0.60
2023-04-17T14:14:33.366Z,0.85
2023-04-17T14:19:36.251Z,0.90
2023-04-17T14:24:40.524Z,0.85
2023-04-17T14:29:43.454Z,0.63
2023-04-17T14:34:46.396Z,0.90
2023-04-17T14:39:50.699Z,1.10
2023-04-17T14:44:53.623Z,0.93
2023-04-17T14:49:56.547Z,0.85
2023-04-17T14:55:00.786Z,0.77
2023-04-17T15:00:05.124Z,0.82
2023-04-17T15:05:09.457Z,1.02
2023-04-17T15:10:13.804Z,2.00
2023-04-17T15:15:16.693Z,3.13
2023-04-17T15:20:24.778Z,4.20
2023-04-17T15:25:29.131Z,7.47
2023-04-17T15:30:32.092Z,5.63
2023-04-17T15:35:34.993Z,4.32
2023-04-17T15:40:39.238Z,3.60
2023-04-17T15:45:42.243Z,3.25
2023-04-17T15:50:45.248Z,3.25
2023-04-17T15:55:49.563Z,2.97
2023-04-17T16:00:52.450Z,3.20
2023-04-17T16:05:55.355Z,3.60
2023-04-17T16:11:00.486Z,3.45
2023-04-17T16:16:04.207Z,3.78
2023-04-17T16:21:11.218Z,3.80
2023-04-17T16:26:16.074Z,3.20
2023-04-17T16:31:21.155Z,3.53
2023-04-17T16:36:24.123Z,4.32
2023-04-17T16:41:30.515Z,4.05
2023-04-17T16:46:52.159Z,2.88
2023-04-17T16:51:56.836Z,3.08
2023-04-17T16:57:01.130Z,3.13
2023-04-17T17:02:04.226Z,2.72
2023-04-17T17:07:07.303Z,2.75
2023-04-17T17:12:11.965Z,2.88
2023-04-17T17:17:14.831Z,2.70
2023-04-17T17:22:17.771Z,7.20
2023-04-17T17:27:22.029Z,3.50
2023-04-17T17:32:25.084Z,2.80
2023-04-17T17:37:28.190Z,2.40
2023-04-17T17:42:32.424Z,2.78
2023-04-17T17:47:35.331Z,2.38
2023-04-17T17:52:38.212Z,2.42
2023-04-17T17:57:48.935Z,2.05
2023-04-17T18:02:52.747Z,2.03
2023-04-17T18:07:55.781Z,2.10
2023-04-17T18:13:00.008Z,1.77
2023-04-17T18:18:03.005Z,3.10
2023-04-17T18:23:06.062Z,2.50
2023-04-17T18:28:10.438Z,1.90
2023-04-17T18:33:13.395Z,1.83
2023-04-17T18:38:16.748Z,2.30
2023-04-17T18:43:21.042Z,1.80
2023-04-17T18:48:24.908Z,2.80
2023-04-17T18:53:27.807Z,2.00
2023-04-17T18:58:32.060Z,2.00
2023-04-17T19:03:35.069Z,1.90
2023-04-17T19:08:39.472Z,2.03
2023-04-17T19:13:45.050Z,1.80
2023-04-17T19:18:47.979Z,2.05
2023-04-17T19:23:51.415Z,1.85
2023-04-17T19:28:56.074Z,1.55
2023-04-17T19:33:59.006Z,1.80
2023-04-17T19:39:02.065Z,1.67
2023-04-17T19:44:06.733Z,1.60
2023-04-17T19:49:10.419Z,1.60
2023-04-17T19:54:13.429Z,1.60
2023-04-17T19:59:17.663Z,1.60
2023-04-17T20:04:20.922Z,1.30
2023-04-17T20:09:24.151Z,1.40
2023-04-17T20:14:28.401Z,1.48
2023-04-17T20:19:31.306Z,1.63
2023-04-17T20:24:34.303Z,1.83
2023-04-17T20:29:38.997Z,1.10
2023-04-17T20:34:41.929Z,1.20
2023-04-17T20:39:44.892Z,1.30
2023-04-17T20:44:51.844Z,1.40
2023-04-17T20:49:54.780Z,1.60
2023-04-17T20:54:57.722Z,1.30
2023-04-17T21:00:01.994Z,1.88
2023-04-17T21:05:05.413Z,1.55
2023-04-17T21:10:09.338Z,1.60
2023-04-17T21:15:13.817Z,1.40
2023-04-17T21:20:16.750Z,1.40
2023-04-17T21:25:19.756Z,1.30
2023-04-17T21:30:25.906Z,1.30
2023-04-17T21:35:30.347Z,1.30
2023-04-17T21:40:33.837Z,1.20
2023-04-17T21:45:38.916Z,1.13
2023-04-17T21:50:43.207Z,1.15
2023-04-17T21:55:46.092Z,1.17
2023-04-17T22:00:55.680Z,1.10
2023-04-17T22:05:59.062Z,1.20
2023-04-17T22:11:02.055Z,1.00
2023-04-17T22:16:07.041Z,1.00
2023-04-17T22:21:09.970Z,1.20
2023-04-17T22:26:12.966Z,1.00
2023-04-17T22:31:17.279Z,0.90
2023-04-17T22:36:20.184Z,1.10
2023-04-17T22:41:23.085Z,1.00
2023-04-17T22:46:27.377Z,1.02
2023-04-17T22:51:31.086Z,1.20
2023-04-17T22:56:34.860Z,1.00
2023-04-17T23:01:39.133Z,1.00
2023-04-17T23:06:42.503Z,0.90
2023-04-17T23:11:45.406Z,1.40
2023-04-17T23:16:49.696Z,1.10
2023-04-17T23:21:52.732Z,1.10
2023-04-17T23:26:56.126Z,1.15
2023-04-17T23:32:00.526Z,1.10
2023-04-17T23:37:03.400Z,1.10
2023-04-17T23:42:07.846Z,0.88
2023-04-17T23:47:13.749Z,1.13
2023-04-17T23:52:16.653Z,1.30
2023-04-17T23:57:19.609Z,1.05
